createdAt,value
2023-05-05T00:01:53.827Z,13.39
2023-05-05T00:04:28.829Z,13.47
2023-05-05T00:07:04.614Z,13.54
2023-05-05T00:09:39.480Z,13.41
2023-05-05T00:12:13.807Z,13.39
2023-05-05T00:14:48.445Z,13.29
2023-05-05T00:17:23.198Z,13.11
2023-05-05T00:19:59.797Z,13.07
2023-05-05T00:22:36.383Z,13.07
2023-05-05T00:25:11.907Z,13.13
2023-05-05T00:27:46.210Z,13.14
2023-05-05T00:30:20.938Z,13.13
2023-05-05T00:32:56.481Z,13.31
2023-05-05T00:35:31.212Z,13.19
2023-05-05T00:38:07.027Z,13.23
2023-05-05T00:40:41.983Z,13.11
2023-05-05T00:43:16.364Z,13.22
2023-05-05T00:45:58.438Z,13.11
2023-05-05T00:48:33.900Z,12.92
2023-05-05T00:51:09.498Z,12.97
2023-05-05T00:53:45.613Z,12.99
2023-05-05T00:56:22.198Z,13.04
2023-05-05T00:58:58.589Z,12.90
2023-05-05T01:01:33.388Z,12.64
2023-05-05T01:04:07.849Z,12.58
2023-05-05T01:06:52.748Z,12.72
2023-05-05T01:09:40.417Z,12.81
2023-05-05T01:12:23.486Z,12.91
2023-05-05T01:15:05.694Z,13.04
2023-05-05T01:17:44.162Z,13.02
2023-05-05T01:20:25.039Z,12.79
2023-05-05T01:23:04.863Z,12.84
2023-05-05T01:26:07.058Z,12.71
2023-05-05T01:29:04.330Z,12.82
2023-05-05T01:31:52.006Z,12.66
2023-05-05T01:34:30.853Z,12.58
2023-05-05T01:37:11.646Z,12.58
2023-05-05T01:39:51.303Z,12.61
2023-05-05T01:42:28.104Z,12.60
2023-05-05T01:45:04.974Z,12.55
2023-05-05T01:47:43.179Z,12.60
2023-05-05T01:50:19.374Z,12.68
2023-05-05T01:52:55.460Z,12.52
2023-05-05T01:55:32.155Z,12.40
2023-05-05T01:58:09.600Z,12.53
2023-05-05T02:00:45.763Z,12.47
2023-05-05T02:03:24.219Z,12.33
2023-05-05T02:06:01.592Z,12.28
2023-05-05T02:08:37.753Z,12.27
2023-05-05T02:11:14.901Z,12.19
2023-05-05T02:13:51.304Z,12.29
2023-05-05T02:16:26.617Z,12.29
2023-05-05T02:19:05.616Z,12.08
2023-05-05T02:21:41.604Z,12.21
2023-05-05T02:24:16.241Z,12.17
2023-05-05T02:26:53.241Z,12.07
2023-05-05T02:29:32.658Z,12.09
2023-05-05T02:32:12.652Z,12.15
2023-05-05T02:34:51.376Z,12.22
2023-05-05T02:37:31.138Z,12.04
2023-05-05T02:40:09.211Z,12.00
2023-05-05T02:42:49.011Z,12.16
2023-05-05T02:45:24.522Z,12.01
2023-05-05T02:48:02.971Z,12.03
2023-05-05T02:50:40.115Z,11.95
2023-05-05T02:53:17.435Z,12.03
2023-05-05T02:55:55.174Z,11.89
2023-05-05T02:58:35.954Z,11.96
2023-05-05T03:01:21.859Z,11.90
2023-05-05T03:04:05.930Z,11.94
2023-05-05T03:06:44.810Z,11.96
2023-05-05T03:09:27.157Z,12.03
2023-05-05T03:12:05.176Z,12.03
2023-05-05T03:14:44.519Z,12.09
2023-05-05T03:17:21.639Z,11.96
2023-05-05T03:19:56.823Z,11.97
2023-05-05T03:22:36.400Z,11.97
2023-05-05T03:25:11.306Z,11.80
2023-05-05T03:27:45.676Z,11.61
2023-05-05T03:30:21.538Z,11.54
2023-05-05T03:32:56.522Z,11.62
2023-05-05T03:35:31.200Z,11.46
2023-05-05T03:38:07.142Z,11.60
2023-05-05T03:40:44.619Z,11.65
2023-05-05T03:43:20.592Z,11.68
2023-05-05T03:45:55.524Z,11.56
2023-05-05T03:48:30.202Z,11.83
2023-05-05T03:51:05.271Z,11.87
2023-05-05T03:53:41.699Z,11.76
2023-05-05T03:56:16.592Z,11.81
2023-05-05T03:58:51.053Z,11.80
2023-05-05T04:01:25.875Z,11.84
2023-05-05T04:04:00.573Z,11.91
2023-05-05T04:06:34.922Z,11.98
2023-05-05T04:09:12.501Z,12.02
2023-05-05T04:11:47.574Z,12.06
2023-05-05T04:14:22.756Z,12.15
2023-05-05T04:16:57.750Z,12.22
2023-05-05T04:19:34.116Z,12.25
2023-05-05T04:22:09.292Z,12.13
2023-05-05T04:24:45.342Z,12.28
2023-05-05T04:27:19.942Z,12.44
2023-05-05T04:29:55.350Z,12.65
2023-05-05T04:32:29.781Z,12.83
2023-05-05T04:35:05.029Z,14.87
2023-05-05T04:37:39.574Z,14.50
2023-05-05T04:40:16.327Z,14.24
2023-05-05T04:42:51.109Z,14.01
2023-05-05T04:45:26.062Z,13.94
2023-05-05T04:48:00.628Z,13.84
2023-05-05T04:50:35.323Z,13.76
2023-05-05T04:53:09.747Z,13.75
2023-05-05T04:55:45.877Z,13.76
2023-05-05T04:58:20.567Z,13.75
2023-05-05T05:00:56.252Z,13.85
2023-05-05T05:03:32.129Z,13.83
2023-05-05T05:06:07.131Z,13.85
2023-05-05T05:08:43.753Z,13.84
2023-05-05T05:11:19.989Z,13.81
2023-05-05T05:13:54.529Z,13.90
2023-05-05T05:16:29.239Z,14.11
2023-05-05T05:19:04.096Z,14.09
2023-05-05T05:21:38.852Z,14.22
2023-05-05T05:24:13.298Z,14.26
2023-05-05T05:26:49.552Z,14.37
2023-05-05T05:29:24.261Z,14.48
2023-05-05T05:31:59.023Z,14.49
2023-05-05T05:34:33.368Z,14.39
2023-05-05T05:37:08.051Z,14.38
2023-05-05T05:39:43.687Z,14.51
2023-05-05T05:42:20.102Z,14.64
2023-05-05T05:44:54.588Z,14.78
2023-05-05T05:47:29.450Z,14.81
2023-05-05T05:50:04.978Z,14.94
2023-05-05T05:52:39.645Z,14.87
2023-05-05T05:55:14.170Z,16.29
2023-05-05T05:57:50.309Z,17.17
2023-05-05T06:02:58.315Z,16.81
2023-05-05T06:05:34.326Z,16.81
2023-05-05T06:08:09.286Z,16.11
2023-05-05T06:10:44.231Z,16.16
2023-05-05T06:13:18.961Z,15.94
2023-05-05T06:15:53.957Z,15.96
2023-05-05T06:18:30.367Z,15.90
2023-05-05T06:21:05.387Z,15.85
2023-05-05T06:23:39.990Z,15.93
2023-05-05T06:26:14.964Z,15.80
2023-05-05T06:28:49.268Z,15.81
2023-05-05T06:31:23.969Z,15.98
2023-05-05T06:33:59.965Z,16.07
2023-05-05T06:36:34.691Z,16.21
2023-05-05T06:39:09.846Z,16.24
2023-05-05T06:41:44.635Z,16.23
2023-05-05T06:44:18.930Z,16.19
2023-05-05T06:46:54.188Z,16.27
2023-05-05T06:49:29.983Z,16.33
2023-05-05T06:52:04.682Z,16.48
2023-05-05T06:54:41.751Z,16.77
2023-05-05T06:57:16.400Z,17.11
2023-05-05T06:59:50.737Z,18.08
2023-05-05T07:02:26.953Z,17.82
2023-05-05T07:05:02.946Z,17.69
2023-05-05T07:07:38.468Z,17.15
2023-05-05T07:10:13.088Z,17.16
2023-05-05T07:12:48.018Z,17.34
2023-05-05T07:15:28.900Z,17.50
2023-05-05T07:18:04.983Z,17.72
2023-05-05T07:20:40.959Z,17.73
2023-05-05T07:23:15.635Z,17.79
2023-05-05T07:25:50.828Z,17.50
2023-05-05T07:28:25.536Z,17.53
2023-05-05T07:30:59.806Z,17.71
2023-05-05T07:33:34.822Z,17.57
2023-05-05T07:36:10.772Z,17.80
2023-05-05T07:38:47.891Z,18.03
2023-05-05T07:41:22.475Z,18.12
2023-05-05T07:43:57.498Z,18.57
2023-05-05T07:46:32.153Z,18.71
2023-05-05T07:49:06.947Z,18.67
2023-05-05T07:51:43.084Z,18.59
2023-05-05T07:54:18.229Z,18.64
2023-05-05T07:56:52.647Z,18.80
2023-05-05T07:59:27.212Z,18.98
2023-05-05T08:02:01.631Z,18.88
2023-05-05T08:04:36.665Z,19.24
2023-05-05T08:07:12.576Z,18.69
2023-05-05T08:09:47.342Z,18.44
2023-05-05T08:12:22.088Z,18.69
2023-05-05T08:14:56.694Z,18.80
2023-05-05T08:17:31.200Z,18.97
2023-05-05T08:20:06.828Z,19.29
2023-05-05T08:22:43.216Z,19.22
2023-05-05T08:25:17.850Z,19.88
2023-05-05T08:27:52.289Z,20.11
2023-05-05T08:30:28.572Z,20.42
2023-05-05T08:33:03.034Z,20.39
2023-05-05T08:35:37.776Z,20.21
2023-05-05T08:38:14.012Z,19.98
2023-05-05T08:40:50.911Z,19.87
2023-05-05T08:43:28.560Z,19.87
2023-05-05T08:46:04.015Z,20.01
2023-05-05T08:48:41.538Z,20.04
2023-05-05T08:51:19.724Z,20.21
2023-05-05T08:53:59.406Z,20.38
2023-05-05T08:56:36.360Z,20.22
2023-05-05T08:59:12.315Z,20.13
2023-05-05T09:01:47.296Z,20.08
2023-05-05T09:04:21.808Z,19.89
2023-05-05T09:06:59.295Z,20.14
2023-05-05T09:09:35.377Z,20.50
2023-05-05T09:12:10.407Z,20.68
2023-05-05T09:14:44.839Z,20.86
2023-05-05T09:17:26.510Z,20.68
2023-05-05T09:20:07.345Z,20.85
2023-05-05T09:22:43.086Z,20.28
2023-05-05T09:25:19.774Z,20.39
2023-05-05T09:27:55.071Z,20.21
2023-05-05T09:30:29.445Z,20.74
2023-05-05T09:33:04.510Z,20.70
2023-05-05T09:35:53.315Z,20.97
2023-05-05T09:38:28.307Z,21.13
2023-05-05T09:41:05.465Z,21.61
2023-05-05T11:49:29.188Z,24.77
2023-05-05T11:52:06.773Z,24.77
2023-05-05T11:54:47.655Z,24.52
2023-05-05T11:57:29.100Z,24.36
2023-05-05T12:00:06.517Z,24.13
2023-05-05T12:02:41.451Z,24.33
2023-05-05T12:05:22.326Z,24.39
2023-05-05T12:08:00.767Z,24.56
2023-05-05T12:10:36.141Z,24.54
2023-05-05T12:13:19.899Z,24.46
2023-05-05T12:15:54.514Z,24.58
2023-05-05T12:18:29.280Z,24.80
2023-05-05T12:21:15.929Z,25.06
2023-05-05T12:23:50.837Z,24.79
2023-05-05T12:26:26.637Z,24.89
2023-05-05T12:29:02.261Z,25.01
2023-05-05T12:31:37.365Z,25.35
2023-05-05T12:34:13.241Z,24.96
2023-05-05T12:36:49.200Z,25.20
2023-05-05T12:39:24.027Z,25.29
2023-05-05T12:42:04.452Z,25.20
2023-05-05T12:44:39.581Z,25.14
2023-05-05T12:47:14.542Z,24.81
2023-05-05T12:49:50.912Z,25.15
2023-05-05T12:52:40.955Z,25.23
2023-05-05T12:55:15.677Z,25.14
2023-05-05T12:58:04.697Z,25.09
2023-05-05T13:00:39.682Z,25.09
2023-05-05T13:03:20.638Z,25.59
2023-05-05T13:05:55.790Z,25.21
2023-05-05T13:08:45.017Z,25.46
2023-05-05T13:11:19.749Z,25.47
2023-05-05T13:13:54.075Z,25.76
2023-05-05T13:16:29.073Z,25.90
2023-05-05T13:19:03.593Z,25.84
2023-05-05T13:21:38.357Z,25.52
2023-05-05T13:24:25.997Z,25.98
2023-05-05T13:27:04.356Z,25.57
2023-05-05T13:29:38.780Z,25.27
2023-05-05T13:32:13.584Z,25.38
2023-05-05T13:34:48.073Z,25.63
2023-05-05T13:37:23.053Z,25.56
2023-05-05T13:40:00.416Z,25.60
2023-05-05T13:42:35.246Z,25.50
2023-05-05T13:45:10.919Z,25.41
2023-05-05T13:47:45.814Z,25.79
2023-05-05T13:50:20.381Z,25.77
2023-05-05T13:52:55.081Z,25.45
2023-05-05T13:55:31.537Z,25.81
2023-05-05T13:58:06.392Z,25.64
2023-05-05T14:03:07.683Z,26.05
2023-05-05T14:05:43.522Z,26.26
2023-05-05T14:08:18.335Z,26.56
2023-05-05T14:10:52.995Z,26.67
2023-05-05T14:13:27.310Z,26.30
2023-05-05T14:16:02.052Z,26.25
2023-05-05T14:18:37.807Z,26.34
2023-05-05T14:21:12.686Z,26.22
2023-05-05T14:23:47.219Z,25.91
2023-05-05T14:26:21.847Z,26.11
2023-05-05T14:28:56.323Z,26.66
2023-05-05T14:31:31.038Z,26.46
2023-05-05T14:34:06.835Z,26.31
2023-05-05T14:36:41.509Z,26.26
2023-05-05T14:39:16.155Z,26.51
2023-05-05T14:41:51.146Z,26.53
2023-05-05T14:44:25.452Z,26.75
2023-05-05T14:47:00.202Z,26.53
2023-05-05T14:49:35.972Z,26.66
2023-05-05T14:52:11.208Z,26.87
2023-05-05T14:54:46.672Z,26.62
2023-05-05T14:57:21.821Z,26.91
2023-05-05T14:59:56.272Z,26.93
2023-05-05T15:02:31.024Z,26.67
2023-05-05T15:05:10.673Z,26.33
2023-05-05T15:07:45.710Z,26.30
2023-05-05T15:10:21.956Z,26.61
2023-05-05T15:12:56.881Z,26.56
2023-05-05T15:15:31.356Z,26.26
2023-05-05T15:18:06.505Z,26.19
2023-05-05T15:20:42.574Z,26.30
2023-05-05T15:23:17.382Z,26.14
2023-05-05T15:25:51.765Z,25.63
2023-05-05T15:28:26.849Z,25.85
2023-05-05T15:31:02.849Z,25.60
2023-05-05T15:33:37.746Z,25.72
2023-05-05T15:36:14.057Z,25.77
2023-05-05T15:38:49.108Z,26.00
2023-05-05T15:41:27.159Z,26.12
2023-05-05T15:44:03.223Z,25.95
2023-05-05T15:46:37.623Z,25.78
2023-05-05T15:49:12.454Z,25.75
2023-05-05T15:51:48.818Z,25.60
2023-05-05T15:54:23.684Z,26.05
2023-05-05T15:56:58.098Z,25.55
2023-05-05T15:59:33.168Z,25.75
2023-05-05T16:02:07.536Z,25.57
2023-05-05T16:04:42.197Z,25.01
2023-05-05T16:07:18.349Z,24.86
2023-05-05T16:09:53.126Z,24.87
2023-05-05T16:12:27.473Z,24.76
2023-05-05T16:15:02.637Z,24.81
2023-05-05T16:17:37.251Z,24.98
2023-05-05T16:20:13.168Z,25.37
2023-05-05T16:22:48.981Z,25.49
2023-05-05T16:25:23.878Z,25.52
2023-05-05T16:27:58.191Z,25.14
2023-05-05T16:30:32.794Z,25.13
2023-05-05T16:33:07.372Z,25.31
2023-05-05T16:35:44.499Z,25.46
2023-05-05T16:38:20.922Z,25.45
2023-05-05T16:40:55.628Z,25.12
2023-05-05T16:43:30.368Z,25.15
2023-05-05T16:46:05.515Z,25.06
2023-05-05T16:48:39.834Z,24.99
2023-05-05T16:51:14.664Z,25.12
2023-05-05T16:53:50.373Z,24.84
2023-05-05T16:56:25.041Z,24.80
2023-05-05T16:58:59.609Z,24.36
2023-05-05T17:01:35.014Z,24.56
2023-05-05T17:04:09.969Z,24.27
2023-05-05T17:06:44.667Z,24.22
2023-05-05T17:09:24.887Z,23.96
2023-05-05T17:12:00.036Z,23.80
2023-05-05T17:14:35.619Z,23.64
2023-05-05T17:17:10.828Z,23.40
2023-05-05T17:19:45.458Z,23.32
2023-05-05T17:22:20.239Z,23.02
2023-05-05T17:24:56.313Z,22.85
2023-05-05T17:27:30.924Z,22.59
2023-05-05T17:30:06.324Z,22.55
2023-05-05T17:32:41.178Z,22.36
2023-05-05T17:35:15.763Z,22.04
2023-05-05T17:37:50.640Z,22.03
2023-05-05T17:40:26.387Z,21.92
2023-05-05T17:43:01.081Z,21.76
2023-05-05T17:45:35.865Z,21.69
2023-05-05T17:48:10.746Z,21.54
2023-05-05T17:50:45.509Z,21.45
2023-05-05T17:53:21.199Z,21.35
2023-05-05T17:55:56.962Z,21.27
2023-05-05T17:58:31.883Z,21.26
2023-05-05T18:01:06.383Z,21.12
2023-05-05T18:03:41.530Z,20.97
2023-05-05T18:06:15.926Z,21.06
2023-05-05T18:08:50.575Z,21.17
2023-05-05T18:11:27.881Z,21.07
2023-05-05T18:14:03.010Z,20.99
2023-05-05T18:16:37.365Z,20.97
2023-05-05T18:19:12.063Z,20.93
2023-05-05T18:21:46.528Z,20.85
2023-05-05T18:24:21.186Z,20.59
2023-05-05T18:26:56.896Z,20.30
2023-05-05T18:29:31.637Z,20.22
2023-05-05T18:32:07.451Z,20.08
2023-05-05T18:34:42.187Z,20.00
2023-05-05T18:37:16.633Z,20.00
2023-05-05T18:39:51.358Z,19.94
2023-05-05T18:42:27.120Z,19.86
2023-05-05T18:45:01.875Z,19.69
2023-05-05T18:47:39.358Z,20.08
2023-05-05T18:50:14.353Z,20.13
2023-05-05T18:52:48.622Z,19.92
2023-05-05T18:55:23.512Z,19.79
2023-05-05T18:57:59.412Z,19.64
2023-05-05T19:00:34.194Z,19.52
2023-05-05T19:03:08.510Z,19.27
2023-05-05T19:05:43.331Z,19.22
2023-05-05T19:08:17.714Z,19.01
2023-05-05T19:10:52.348Z,18.74
2023-05-05T19:13:28.177Z,18.64
2023-05-05T19:16:03.362Z,18.61
2023-05-05T19:18:37.924Z,18.49
2023-05-05T19:21:13.022Z,18.39
2023-05-05T19:23:48.325Z,18.29
2023-05-05T19:26:24.536Z,18.52
2023-05-05T19:29:00.974Z,18.40
2023-05-05T19:31:35.883Z,18.22
2023-05-05T19:34:10.348Z,18.07
2023-05-05T19:36:45.073Z,18.12
2023-05-05T19:39:19.446Z,18.26
2023-05-05T19:41:54.290Z,18.16
2023-05-05T19:44:30.204Z,18.10
2023-05-05T19:47:04.992Z,18.12
2023-05-05T19:49:39.377Z,18.07
2023-05-05T19:52:14.425Z,18.07
2023-05-05T19:54:48.759Z,17.83
2023-05-05T19:57:23.654Z,18.13
2023-05-05T19:59:59.624Z,18.90
2023-05-05T20:02:36.807Z,18.99
2023-05-05T20:05:14.092Z,18.47
2023-05-05T20:07:48.525Z,18.24
2023-05-05T20:10:24.090Z,18.20
2023-05-05T20:12:58.520Z,18.02
2023-05-05T20:15:35.158Z,17.86
2023-05-05T20:18:10.167Z,17.85
2023-05-05T20:20:44.956Z,17.48
2023-05-05T20:23:19.487Z,17.50
2023-05-05T20:25:54.696Z,17.57
2023-05-05T20:28:29.125Z,17.49
2023-05-05T20:31:05.305Z,17.43
2023-05-05T20:33:39.666Z,17.17
2023-05-05T20:36:14.511Z,17.15
2023-05-05T20:38:48.998Z,17.11
2023-05-05T20:41:23.638Z,17.09
2023-05-05T20:43:58.462Z,17.07
2023-05-05T20:46:34.627Z,16.69
2023-05-05T20:49:09.058Z,16.48
2023-05-05T20:51:43.717Z,16.37
2023-05-05T20:54:18.413Z,16.18
2023-05-05T20:56:53.285Z,16.26
2023-05-05T20:59:28.369Z,16.21
2023-05-05T21:02:04.410Z,16.24
2023-05-05T21:04:38.856Z,16.59
2023-05-05T21:07:13.557Z,17.66
2023-05-05T21:09:48.584Z,18.07
2023-05-05T21:12:23.580Z,17.78
2023-05-05T21:14:58.920Z,17.20
2023-05-05T21:17:35.386Z,16.75
2023-05-05T21:20:11.201Z,16.48
2023-05-05T21:22:46.341Z,16.14
2023-05-05T21:25:22.249Z,15.95
2023-05-05T21:27:56.948Z,15.93
2023-05-05T21:30:31.330Z,15.69
2023-05-05T21:33:07.347Z,15.61
2023-05-05T21:35:41.691Z,15.66
2023-05-05T21:38:16.744Z,15.65
2023-05-05T21:40:56.766Z,15.64
2023-05-05T21:43:31.510Z,15.49
2023-05-05T21:46:07.068Z,16.31
2023-05-05T21:48:43.151Z,17.37
2023-05-05T21:51:17.704Z,17.90
2023-05-05T21:53:53.022Z,18.33
2023-05-05T21:56:27.428Z,17.87
2023-05-05T21:59:02.329Z,17.39
2023-05-05T22:02:57.253Z,17.25
2023-05-05T22:05:32.278Z,17.25
2023-05-05T22:08:06.794Z,16.61
2023-05-05T22:10:41.511Z,16.37
2023-05-05T22:13:16.028Z,16.16
2023-05-05T22:15:50.730Z,16.18
2023-05-05T22:18:26.687Z,15.95
2023-05-05T22:21:01.904Z,15.86
2023-05-05T22:23:37.285Z,16.01
2023-05-05T22:26:12.063Z,15.99
2023-05-05T22:28:46.878Z,15.96
2023-05-05T22:31:21.490Z,15.66
2023-05-05T22:33:57.379Z,15.59
2023-05-05T22:36:32.470Z,15.41
2023-05-05T22:39:06.756Z,15.50
2023-05-05T22:41:41.582Z,15.52
2023-05-05T22:44:16.068Z,15.44
2023-05-05T22:46:50.670Z,15.36
2023-05-05T22:49:26.573Z,15.43
2023-05-05T22:52:02.325Z,15.50
2023-05-05T22:54:36.591Z,15.28
2023-05-05T22:57:11.269Z,15.05
2023-05-05T22:59:45.877Z,15.11
2023-05-05T23:02:21.237Z,15.19
2023-05-05T23:04:56.923Z,15.20
2023-05-05T23:07:31.589Z,15.34
2023-05-05T23:10:06.747Z,15.39
2023-05-05T23:12:41.446Z,15.30
2023-05-05T23:15:15.835Z,15.20
2023-05-05T23:17:50.417Z,15.23
2023-05-05T23:20:26.338Z,15.32
2023-05-05T23:23:01.056Z,15.15
2023-05-05T23:25:35.508Z,15.14
2023-05-05T23:28:10.165Z,14.90
2023-05-05T23:30:44.543Z,14.76
2023-05-05T23:33:19.554Z,14.64
2023-05-05T23:35:55.701Z,14.82
2023-05-05T23:38:30.250Z,14.62
2023-05-05T23:41:04.692Z,14.73
2023-05-05T23:43:39.282Z,14.67
2023-05-05T23:46:13.656Z,14.77
2023-05-05T23:48:49.713Z,14.64
2023-05-05T23:51:27.220Z,14.42
2023-05-05T23:54:01.959Z,14.40
2023-05-05T23:56:36.435Z,14.43
2023-05-05T23:59:11.054Z,14.36
